createdAt,value
2023-04-10T00:00:10.929Z,16.08
2023-04-10T00:05:12.408Z,16.67
2023-04-10T00:10:13.921Z,18.58
2023-04-10T00:15:15.361Z,18.10
2023-04-10T00:20:16.736Z,13.43
2023-04-10T00:25:18.218Z,12.70
2023-04-10T00:30:19.894Z,12.77
2023-04-10T00:35:21.297Z,11.82
2023-04-10T00:40:22.711Z,11.57
2023-04-10T00:45:24.252Z,13.55
2023-04-10T00:50:25.549Z,13.60
2023-04-10T00:55:26.930Z,13.20
2023-04-10T01:00:28.230Z,14.45
2023-04-10T01:05:35.219Z,14.23
2023-04-10T01:10:47.852Z,13.52
2023-04-10T01:15:52.377Z,15.32
2023-04-10T01:20:53.817Z,13.13
2023-04-10T01:26:01.380Z,13.90
2023-04-10T01:31:03.255Z,15.17
2023-04-10T01:36:06.077Z,14.73
2023-04-10T01:41:08.217Z,15.00
2023-04-10T01:46:10.064Z,14.13
2023-04-10T01:51:11.662Z,16.05
2023-04-10T01:56:13.343Z,14.63
2023-04-10T02:01:28.893Z,15.77
2023-04-10T02:06:34.059Z,14.88
2023-04-10T02:11:41.891Z,15.10
2023-04-10T02:16:43.381Z,13.95
2023-04-10T02:21:44.859Z,14.77
2023-04-10T02:26:51.058Z,16.15
2023-04-10T02:31:52.385Z,16.75
2023-04-10T02:36:54.495Z,15.37
2023-04-10T02:41:56.549Z,15.65
2023-04-10T02:46:57.880Z,14.80
2023-04-10T02:51:59.196Z,16.27
2023-04-10T02:57:01.365Z,13.20
2023-04-10T03:02:02.743Z,15.60
2023-04-10T03:07:04.060Z,15.35
2023-04-10T03:12:05.398Z,15.70
2023-04-10T03:17:07.380Z,14.63
2023-04-10T03:22:09.985Z,14.68
2023-04-10T03:27:11.282Z,16.60
2023-04-10T03:32:12.606Z,17.25
2023-04-10T03:37:13.923Z,14.20
2023-04-10T03:42:15.308Z,14.27
2023-04-10T03:47:16.835Z,15.57
2023-04-10T03:52:18.150Z,14.50
2023-04-10T03:57:21.078Z,13.85
2023-04-10T04:02:22.592Z,17.00
2023-04-10T04:07:24.010Z,12.80
2023-04-10T04:12:25.354Z,20.60
2023-04-10T04:17:26.792Z,18.30
2023-04-10T04:22:28.106Z,14.48
2023-04-10T04:27:29.425Z,15.53
2023-04-10T04:32:30.900Z,14.85
2023-04-10T04:37:32.164Z,14.77
2023-04-10T04:42:33.462Z,15.77
2023-04-10T04:47:34.840Z,15.90
2023-04-10T04:52:36.305Z,14.83
2023-04-10T04:57:37.626Z,15.38
2023-04-10T05:02:39.127Z,14.48
2023-04-10T05:07:40.635Z,15.10
2023-04-10T05:12:43.099Z,15.90
2023-04-10T05:17:44.492Z,16.10
2023-04-10T05:22:46.146Z,16.80
2023-04-10T05:27:47.400Z,13.63
2023-04-10T05:32:48.717Z,14.80
2023-04-10T05:37:50.275Z,12.82
2023-04-10T05:42:52.078Z,15.07
2023-04-10T05:47:53.424Z,16.40
2023-04-10T05:52:54.880Z,12.80
2023-04-10T05:57:56.173Z,23.50
2023-04-10T06:02:57.598Z,34.80
2023-04-10T06:07:58.967Z,28.27
2023-04-10T06:13:00.661Z,19.92
2023-04-10T06:18:02.178Z,19.73
2023-04-10T06:23:03.528Z,15.83
2023-04-10T06:28:04.908Z,17.95
2023-04-10T06:33:06.268Z,15.63
2023-04-10T06:38:07.624Z,13.40
2023-04-10T06:43:09.432Z,22.50
2023-04-10T06:48:10.753Z,17.57
2023-04-10T06:53:11.994Z,12.90
2023-04-10T06:58:13.352Z,11.67
2023-04-10T07:03:14.789Z,9.65
2023-04-10T07:08:16.209Z,10.25
2023-04-10T07:13:17.519Z,8.43
2023-04-10T07:18:18.795Z,8.50
2023-04-10T07:23:20.472Z,9.52
2023-04-10T07:28:21.765Z,8.70
2023-04-10T07:33:23.035Z,8.45
2023-04-10T07:38:24.619Z,8.38
2023-04-10T07:43:26.076Z,7.73
2023-04-10T07:48:27.376Z,8.82
2023-04-10T07:53:28.712Z,8.50
2023-04-10T07:58:30.053Z,8.00
2023-04-10T08:03:37.394Z,8.07
2023-04-10T08:08:39.680Z,7.93
2023-04-10T08:13:41.160Z,7.57
2023-04-10T08:18:42.462Z,6.87
2023-04-10T08:23:43.758Z,7.22
2023-04-10T08:28:47.204Z,8.98
2023-04-10T08:33:48.927Z,6.43
2023-04-10T08:38:50.266Z,6.28
2023-04-10T08:43:51.613Z,6.30
2023-04-10T08:49:01.912Z,6.90
2023-04-10T08:54:06.979Z,6.10
2023-04-10T08:59:08.401Z,6.82
2023-04-10T09:04:11.718Z,6.13
2023-04-10T09:09:13.090Z,6.30
2023-04-10T09:14:20.810Z,6.40
2023-04-10T09:19:32.066Z,6.18
2023-04-10T09:24:42.409Z,5.53
2023-04-10T09:29:45.020Z,5.68
2023-04-10T09:34:53.958Z,5.80
2023-04-10T09:39:55.567Z,5.70
2023-04-10T09:44:56.975Z,7.50
2023-04-10T09:50:00.760Z,6.07
2023-04-10T09:55:06.623Z,6.57
2023-04-10T10:00:09.346Z,8.13
2023-04-10T10:05:11.216Z,5.50
2023-04-10T10:10:12.883Z,7.43
2023-04-10T10:15:29.873Z,5.90
2023-04-10T10:20:33.602Z,7.43
2023-04-10T10:25:37.019Z,8.82
2023-04-10T10:30:38.619Z,5.70
2023-04-10T10:35:40.622Z,5.53
2023-04-10T10:41:11.331Z,5.28
2023-04-10T10:46:14.701Z,5.80
2023-04-10T10:51:16.130Z,7.20
2023-04-10T10:56:20.638Z,5.80
2023-04-10T11:01:22.400Z,5.22
2023-04-10T11:06:43.579Z,4.90
2023-04-10T11:11:59.155Z,5.50
2023-04-10T11:17:00.676Z,4.85
2023-04-10T11:22:04.541Z,4.90
2023-04-10T11:27:06.932Z,7.32
2023-04-10T11:32:08.329Z,5.72
2023-04-10T11:37:09.737Z,4.80
2023-04-10T11:42:11.816Z,4.47
2023-04-10T11:47:14.274Z,5.13
2023-04-10T11:52:24.202Z,4.53
2023-04-10T11:57:34.133Z,4.30
2023-04-10T12:02:35.617Z,4.47
2023-04-10T12:07:37.032Z,4.20
2023-04-10T12:12:38.376Z,4.60
2023-04-10T12:17:39.909Z,5.30
2023-04-10T12:22:43.392Z,4.40
2023-04-10T12:27:48.300Z,5.53
2023-04-10T12:32:53.531Z,4.70
2023-04-10T12:37:55.269Z,5.15
2023-04-10T12:42:56.622Z,5.68
2023-04-10T12:47:57.949Z,4.47
2023-04-10T12:53:09.370Z,4.43
2023-04-10T12:58:17.993Z,4.30
2023-04-10T13:03:19.576Z,3.60
2023-04-10T13:08:22.075Z,7.32
2023-04-10T13:13:23.389Z,4.45
2023-04-10T13:18:24.888Z,5.30
2023-04-10T13:23:26.164Z,7.53
2023-04-10T13:28:27.501Z,5.45
2023-04-10T13:33:28.795Z,6.60
2023-04-10T13:38:30.242Z,8.87
2023-04-10T13:43:31.612Z,6.55
2023-04-10T13:48:40.086Z,6.38
2023-04-10T13:53:41.847Z,5.40
2023-04-10T13:58:45.366Z,5.53
2023-04-10T14:03:46.745Z,5.03
2023-04-10T14:08:48.123Z,5.77
2023-04-10T14:13:49.428Z,6.40
2023-04-10T14:18:50.764Z,5.63
2023-04-10T14:23:52.079Z,5.25
2023-04-10T14:28:53.605Z,6.13
2023-04-10T14:33:55.321Z,5.35
2023-04-10T14:38:56.785Z,5.70
2023-04-10T14:43:58.124Z,24.43
2023-04-10T14:48:59.454Z,4.90
2023-04-10T14:54:00.781Z,6.05
2023-04-10T14:59:02.086Z,6.17
2023-04-10T15:04:03.663Z,14.40
2023-04-10T15:09:05.232Z,11.88
2023-04-10T15:14:07.433Z,6.22
2023-04-10T15:19:08.776Z,5.50
2023-04-10T15:24:10.238Z,7.22
2023-04-10T15:29:14.715Z,5.70
2023-04-10T15:34:16.022Z,17.87
2023-04-10T15:39:17.369Z,6.93
2023-04-10T15:44:18.743Z,6.90
2023-04-10T15:49:29.831Z,6.37
2023-04-10T15:54:39.029Z,6.77
2023-04-10T15:59:40.416Z,8.82
2023-04-10T16:04:41.832Z,6.43
2023-04-10T16:09:43.260Z,6.67
2023-04-10T16:14:44.596Z,5.88
2023-04-10T16:19:45.946Z,6.18
2023-04-10T16:24:47.266Z,6.10
2023-04-10T16:29:48.537Z,6.43
2023-04-10T16:34:49.893Z,7.38
2023-04-10T16:39:51.873Z,6.53
2023-04-10T16:44:53.280Z,9.47
2023-04-10T16:49:54.524Z,8.40
2023-04-10T16:54:55.815Z,6.35
2023-04-10T16:59:58.205Z,7.63
2023-04-10T17:04:59.496Z,9.85
2023-04-10T17:10:00.827Z,19.00
2023-04-10T17:15:02.150Z,11.10
2023-04-10T17:20:03.658Z,16.52
2023-04-10T17:25:05.581Z,18.63
2023-04-10T17:30:10.510Z,12.90
2023-04-10T17:35:11.815Z,15.15
2023-04-10T17:40:13.250Z,11.00
2023-04-10T17:45:14.633Z,12.57
2023-04-10T17:50:16.050Z,9.27
2023-04-10T17:55:20.570Z,6.68
2023-04-10T18:00:22.873Z,7.25
2023-04-10T18:05:24.275Z,8.57
2023-04-10T18:10:25.737Z,7.72
2023-04-10T18:15:27.350Z,9.50
2023-04-10T18:20:28.677Z,11.83
2023-04-10T18:25:29.992Z,12.27
2023-04-10T18:30:34.005Z,9.95
2023-04-10T18:35:35.406Z,10.83
2023-04-10T18:40:39.459Z,13.70
2023-04-10T18:45:41.909Z,14.20
2023-04-10T18:50:43.300Z,8.17
2023-04-10T18:55:54.466Z,6.60
2023-04-10T19:00:55.762Z,6.90
2023-04-10T19:05:57.079Z,7.57
2023-04-10T19:10:58.469Z,10.43
2023-04-10T19:16:00.451Z,10.30
2023-04-10T19:21:02.642Z,8.97
2023-04-10T19:26:04.118Z,10.50
2023-04-10T19:31:05.701Z,10.27
2023-04-10T19:36:08.437Z,9.52
2023-04-10T19:41:14.128Z,9.55
2023-04-10T19:46:19.149Z,9.40
2023-04-10T19:51:21.098Z,8.85
2023-04-10T19:56:22.486Z,6.78
2023-04-10T20:01:24.107Z,6.13
2023-04-10T20:06:27.051Z,6.38
2023-04-10T20:11:30.590Z,6.68
2023-04-10T20:16:32.094Z,6.77
2023-04-10T20:21:33.692Z,6.65
2023-04-10T20:26:35.227Z,6.10
2023-04-10T20:31:36.597Z,6.27
2023-04-10T20:36:38.011Z,5.70
2023-04-10T20:41:39.328Z,8.23
2023-04-10T20:46:40.760Z,6.47
2023-04-10T20:51:42.420Z,5.68
2023-04-10T20:56:44.105Z,7.40
2023-04-10T21:01:45.783Z,6.50
2023-04-10T21:06:47.169Z,6.28
2023-04-10T21:11:48.481Z,4.93
2023-04-10T21:16:49.927Z,7.07
2023-04-10T21:21:51.319Z,5.88
2023-04-10T21:26:52.593Z,6.50
2023-04-10T21:31:53.950Z,6.47
2023-04-10T21:36:55.361Z,6.55
2023-04-10T21:41:56.896Z,5.47
2023-04-10T21:46:58.231Z,5.10
2023-04-10T21:51:59.610Z,6.45
2023-04-10T21:57:00.992Z,5.33
2023-04-10T22:02:02.313Z,6.17
2023-04-10T22:07:05.395Z,7.60
2023-04-10T22:12:07.007Z,6.73
2023-04-10T22:17:08.532Z,7.30
2023-04-10T22:22:10.035Z,5.78
2023-04-10T22:27:11.354Z,10.07
2023-04-10T22:32:12.693Z,6.88
2023-04-10T22:37:14.134Z,5.35
2023-04-10T22:42:15.806Z,6.27
2023-04-10T22:47:17.230Z,5.65
2023-04-10T22:52:18.587Z,6.32
2023-04-10T22:57:19.960Z,6.47
2023-04-10T23:02:21.276Z,18.38
2023-04-10T23:07:22.714Z,14.13
2023-04-10T23:12:24.065Z,8.03
2023-04-10T23:17:25.473Z,6.47
2023-04-10T23:22:28.100Z,9.23
2023-04-10T23:27:29.427Z,5.85
2023-04-10T23:32:30.788Z,8.07
2023-04-10T23:37:35.278Z,9.03
2023-04-10T23:42:36.654Z,4.80
2023-04-10T23:47:38.003Z,5.75
2023-04-10T23:52:39.306Z,6.67
2023-04-10T23:57:40.607Z,5.63
